Time;durP1;ratioP1;P1;durP2;ratioP2;P2;SDS_P1;SDS_P2;PMS_P1;PMS_P2;Temp;Humidity;BMP_temperature;BMP_pressure;BME280_temperature;BME280_humidity;BME280_pressure;Samples;Min_cycle;Max_cycle;Signal;HPM_P1;HPM_P2
2023/01/10 00:02:15;;;;;;;1.50;1.20;;;5.30;99.90;;;5.97;100.00;97882.31;5061129;28;20471;-77
2023/01/10 00:04:45;;;;;;;2.50;1.30;;;5.30;99.90;;;5.95;100.00;97878.28;5058875;28;20469;-78
2023/01/10 00:07:14;;;;;;;3.00;1.20;;;5.40;99.90;;;5.92;100.00;97894.16;5056527;28;20895;-77
2023/01/10 00:09:44;;;;;;;1.63;0.90;;;5.30;99.90;;;5.92;100.00;97901.97;5056454;28;20476;-77
2023/01/10 00:15:06;;;;;;;1.73;1.00;;;5.30;99.90;;;5.84;100.00;97901.91;5054815;28;20489;-78
2023/01/10 00:17:36;;;;;;;2.60;1.00;;;5.10;99.90;;;5.77;100.00;97906.13;5059625;28;20500;-77
2023/01/10 00:20:08;;;;;;;1.83;1.13;;;5.00;99.90;;;5.78;100.00;97916.34;5057189;28;20463;-77
2023/01/10 00:22:38;;;;;;;1.93;1.30;;;5.10;99.90;;;5.76;100.00;97909.69;5057179;28;20468;-78
2023/01/10 00:25:09;;;;;;;1.10;1.00;;;5.20;99.90;;;5.73;100.00;97915.19;5056404;28;20468;-77
2023/01/10 00:27:39;;;;;;;5.30;1.30;;;5.10;99.90;;;5.70;100.00;97926.69;5057938;28;20523;-77
2023/01/10 00:30:12;;;;;;;1.30;1.10;;;5.00;99.90;;;5.65;100.00;97928.97;5059322;28;20465;-77
2023/01/10 00:32:44;;;;;;;1.63;1.10;;;5.00;99.90;;;5.67;100.00;97941.75;5055464;28;21146;-77
2023/01/10 00:35:14;;;;;;;1.37;1.10;;;5.00;99.90;;;5.67;100.00;97955.56;5054437;28;20868;-77
2023/01/10 00:37:43;;;;;;;1.30;1.20;;;5.00;99.90;;;5.66;100.00;97950.53;5056755;28;21857;-77
2023/01/10 00:40:14;;;;;;;1.17;1.00;;;5.10;99.90;;;5.68;100.00;97970.16;5054874;28;21011;-77
2023/01/10 00:45:33;;;;;;;1.57;1.00;;;5.10;99.90;;;5.70;100.00;97983.75;5056755;28;20461;-77
2023/01/10 00:48:03;;;;;;;7.07;1.17;;;5.10;99.90;;;5.68;100.00;97992.69;5056417;28;20564;-77
2023/01/10 00:50:33;;;;;;;6.20;1.60;;;5.00;99.90;;;5.69;100.00;97994.31;5054144;28;20453;-77
2023/01/10 00:53:03;;;;;;;2.03;1.50;;;5.00;99.90;;;5.67;100.00;98002.25;5055336;28;21249;-77
2023/01/10 00:55:35;;;;;;;4.40;1.80;;;5.10;99.90;;;5.64;100.00;98005.16;5056072;28;20456;-77
2023/01/10 00:58:10;;;;;;;3.23;1.80;;;5.10;99.90;;;5.62;100.00;98009.69;5055979;28;20508;-77
2023/01/10 01:00:39;;;;;;;7.07;1.60;;;5.10;99.90;;;5.68;100.00;98010.84;5055188;28;20550;-78
2023/01/10 01:03:09;;;;;;;3.80;1.70;;;5.10;99.90;;;5.72;100.00;98023.34;5052369;28;20489;-77
2023/01/10 01:05:41;;;;;;;6.70;1.50;;;5.20;99.90;;;5.74;100.00;98034.38;5056428;28;20506;-77
2023/01/10 01:08:12;;;;;;;3.07;1.50;;;5.20;99.90;;;5.77;100.00;98035.81;5055866;28;20515;-78
2023/01/10 01:10:42;;;;;;;2.47;1.53;;;5.20;99.90;;;5.77;100.00;98038.41;5055922;28;20463;-77
2023/01/10 01:13:16;;;;;;;2.60;1.60;;;5.30;99.90;;;5.77;100.00;98039.25;5052322;28;20469;-77
2023/01/10 01:15:45;;;;;;;6.40;1.77;;;5.30;99.90;;;5.80;100.00;98048.47;5052593;28;20459;-77
2023/01/10 01:18:19;;;;;;;4.60;1.80;;;5.30;99.90;;;5.82;100.00;98043.97;5055903;28;21018;-77
2023/01/10 01:20:53;;;;;;;7.27;1.97;;;5.30;99.90;;;5.85;100.00;98059.22;5053039;28;20464;-77
2023/01/10 01:23:24;;;;;;;11.13;1.93;;;5.40;99.90;;;5.85;100.00;98065.22;5053702;28;20460;-77
2023/01/10 01:25:56;;;;;;;4.90;1.87;;;5.30;99.90;;;5.82;100.00;98060.34;5053522;28;20943;-77
2023/01/10 01:28:28;;;;;;;6.60;2.37;;;5.40;99.90;;;5.79;100.00;98075.41;5052984;28;21250;-77
2023/01/10 01:30:57;;;;;;;5.70;1.90;;;5.30;99.90;;;5.83;100.00;98076.72;5050955;28;20476;-77
2023/01/10 01:33:27;;;;;;;16.43;2.10;;;5.30;99.90;;;5.86;100.00;98074.66;5051790;28;20480;-77
2023/01/10 01:35:57;;;;;;;7.60;2.03;;;5.30;99.90;;;5.87;100.00;98085.84;5052185;28;20453;-78
2023/01/10 01:38:27;;;;;;;2.63;1.70;;;5.40;99.90;;;5.83;100.00;98082.72;5052241;28;20496;-77
2023/01/10 01:40:56;;;;;;;12.30;2.30;;;5.30;99.90;;;5.82;100.00;98086.28;5056224;28;20960;-78
2023/01/10 01:43:31;;;;;;;6.67;2.57;;;5.30;99.90;;;5.87;100.00;98101.41;5055524;28;20542;-77
2023/01/10 01:46:04;;;;;;;4.97;2.20;;;5.40;99.90;;;5.89;100.00;98104.69;5054256;28;22689;-78
2023/01/10 01:48:39;;;;;;;8.83;2.20;;;5.40;99.90;;;5.90;100.00;98114.09;5055656;28;20481;-77
2023/01/10 01:51:16;;;;;;;3.00;1.97;;;5.50;99.90;;;5.90;100.00;98124.47;5055325;28;20876;-77
2023/01/10 01:53:50;;;;;;;4.83;1.83;;;5.50;99.90;;;5.91;100.00;98126.06;5055903;28;20522;-77
2023/01/10 01:56:29;;;;;;;7.03;2.20;;;5.40;99.90;;;5.90;100.00;98132.25;5055119;28;20551;-77
2023/01/10 01:59:06;;;;;;;12.37;2.00;;;5.50;99.90;;;5.93;100.00;98134.53;5052874;28;20558;-77
2023/01/10 02:01:39;;;;;;;10.50;2.00;;;5.50;99.90;;;5.92;100.00;98132.91;5056072;28;20471;-77
2023/01/10 02:04:17;;;;;;;3.43;1.70;;;5.50;99.90;;;5.94;100.00;98139.56;5053611;28;20461;-78
2023/01/10 02:06:49;;;;;;;9.67;1.93;;;5.50;99.90;;;5.96;100.00;98139.41;5056176;28;20519;-77
2023/01/10 02:09:27;;;;;;;5.60;1.67;;;5.50;99.90;;;5.97;100.00;98152.22;5056750;28;20499;-77
2023/01/10 02:11:56;;;;;;;11.60;2.10;;;5.50;99.90;;;5.95;100.00;98143.78;5055239;28;20468;-77
2023/01/10 02:14:27;;;;;;;5.73;2.00;;;5.40;99.90;;;5.98;100.00;98137.47;5056220;28;20461;-77
2023/01/10 02:16:57;;;;;;;12.73;2.37;;;5.50;99.90;;;5.97;100.00;98147.03;5056944;28;20553;-78
2023/01/10 02:19:42;;;;;;;4.27;1.80;;;5.40;99.90;;;5.98;100.00;98158.22;5054430;28;20505;-78
2023/01/10 02:22:55;;;;;;;3.50;2.00;;;5.40;99.90;;;5.98;100.00;98160.81;5057675;28;20514;-77
2023/01/10 02:25:55;;;;;;;8.70;2.07;;;5.40;99.90;;;5.94;100.00;98162.91;5042276;28;21145;-77
2023/01/10 02:29:11;;;;;;;4.30;2.10;;;5.40;99.90;;;5.90;100.00;98150.41;5055910;28;20511;-78
2023/01/10 02:32:26;;;;;;;3.00;1.63;;;5.30;99.90;;;5.90;100.00;98160.81;5036616;28;20475;-77
2023/01/10 02:35:41;;;;;;;12.13;2.50;;;5.40;99.90;;;5.88;100.00;98158.34;5056026;28;20587;-77
2023/01/10 02:38:25;;;;;;;8.43;1.83;;;5.40;99.90;;;5.87;100.00;98164.50;5057282;28;20569;-77
2023/01/10 02:41:06;;;;;;;9.80;2.03;;;5.30;99.90;;;5.91;100.00;98171.00;5054732;28;20556;-77
2023/01/10 02:43:46;;;;;;;1.80;1.43;;;5.40;99.90;;;5.92;100.00;98175.25;5054556;28;20460;-78
2023/01/10 02:46:23;;;;;;;7.33;1.90;;;5.40;99.90;;;5.95;100.00;98184.50;5055391;28;20498;-77
2023/01/10 02:48:56;;;;;;;4.90;2.10;;;5.40;99.90;;;5.91;100.00;98186.56;5055138;28;20456;-77
2023/01/10 02:51:29;;;;;;;4.00;1.93;;;5.40;99.90;;;5.88;100.00;98191.25;5054172;28;20448;-77
2023/01/10 02:54:03;;;;;;;4.80;1.60;;;5.40;99.90;;;5.88;100.00;98196.44;5054675;28;20499;-77
2023/01/10 02:57:16;;;;;;;6.70;1.50;;;5.40;99.90;;;5.85;100.00;98191.53;5055917;28;20538;-77
2023/01/10 03:00:42;;;;;;;7.00;2.13;;;5.40;99.90;;;5.88;100.00;98193.84;5054150;28;20471;-77
2023/01/10 03:03:46;;;;;;;10.67;1.70;;;5.40;99.90;;;5.90;100.00;98191.94;4978008;28;20456;-77
2023/01/10 03:06:31;;;;;;;5.57;1.80;;;5.50;99.90;;;5.85;100.00;98197.56;5054137;28;20461;-77
2023/01/10 03:09:13;;;;;;;7.47;1.70;;;5.30;99.90;;;5.83;100.00;98203.88;5054069;28;21227;-77
2023/01/10 03:11:46;;;;;;;10.63;2.47;;;5.20;99.90;;;5.85;100.00;98207.09;5050395;28;20485;-77
2023/01/10 03:14:24;;;;;;;13.60;1.63;;;5.20;99.90;;;5.83;100.00;98216.84;5056484;28;20464;-77
2023/01/10 03:17:00;;;;;;;8.73;2.00;;;5.20;99.90;;;5.84;100.00;98215.84;5056241;28;20483;-78
2023/01/10 03:19:39;;;;;;;6.40;1.80;;;5.20;99.90;;;5.86;100.00;98216.56;5054377;28;20478;-77
2023/01/10 03:22:14;;;;;;;10.07;1.73;;;5.30;99.90;;;5.83;100.00;98222.03;5057434;28;20950;-77
2023/01/10 03:24:50;;;;;;;5.13;1.70;;;5.30;99.90;;;5.84;100.00;98218.44;5056610;28;20876;-77
2023/01/10 03:27:31;;;;;;;4.37;1.93;;;5.30;99.90;;;5.86;100.00;98224.34;5058178;28;20463;-77
2023/01/10 03:30:12;;;;;;;4.50;1.53;;;5.20;99.90;;;5.90;100.00;98233.47;5059980;28;20487;-78
2023/01/10 03:32:44;;;;;;;4.30;1.70;;;5.30;99.90;;;5.89;100.00;98237.84;5057900;28;20487;-78
2023/01/10 03:35:14;;;;;;;5.53;1.67;;;5.30;99.90;;;5.91;100.00;98245.44;5060460;28;21066;-77
2023/01/10 03:37:56;;;;;;;6.77;1.83;;;5.30;99.90;;;5.90;100.00;98243.84;5058536;28;20522;-77
2023/01/10 03:40:36;;;;;;;5.10;1.73;;;5.30;99.90;;;5.91;100.00;98241.06;5058380;28;20471;-77
2023/01/10 03:46:16;;;;;;;4.20;1.80;;;5.20;99.90;;;5.85;100.00;98262.41;5057804;28;20461;-77
2023/01/10 03:48:49;;;;;;;4.37;1.50;;;5.20;99.90;;;5.88;100.00;98256.13;5058873;28;20541;-77
2023/01/10 03:51:20;;;;;;;11.57;2.40;;;5.30;99.90;;;5.88;100.00;98256.13;5057108;28;21018;-77
2023/01/10 03:53:52;;;;;;;10.73;2.03;;;5.30;99.90;;;5.87;100.00;98244.94;5058407;28;21112;-77
2023/01/10 03:56:21;;;;;;;16.07;2.30;;;5.40;99.90;;;5.88;100.00;98258.72;5060606;28;20527;-78
2023/01/10 03:58:51;;;;;;;5.33;1.70;;;5.30;99.90;;;5.88;100.00;98266.50;5057188;28;20675;-77
2023/01/10 04:01:20;;;;;;;3.93;1.60;;;5.30;99.90;;;5.86;100.00;98271.06;5057603;28;20562;-77
2023/01/10 04:03:49;;;;;;;6.67;1.53;;;5.30;99.90;;;5.88;100.00;98282.91;5058394;28;20544;-77
2023/01/10 04:06:20;;;;;;;9.37;1.80;;;5.30;99.90;;;5.88;100.00;98290.69;5057937;28;21097;-77
2023/01/10 04:08:51;;;;;;;8.23;2.33;;;5.30;99.90;;;5.89;100.00;98296.69;5057639;28;20492;-77
2023/01/10 04:11:21;;;;;;;11.23;1.70;;;5.30;99.90;;;5.88;100.00;98301.06;5057557;28;20497;-77
2023/01/10 04:13:51;;;;;;;7.03;1.40;;;5.30;99.90;;;5.87;100.00;98304.63;5056995;28;20506;-77
2023/01/10 04:16:22;;;;;;;6.70;1.60;;;5.20;99.90;;;5.89;100.00;98309.66;5058046;28;20552;-77
2023/01/10 04:18:52;;;;;;;10.30;1.43;;;5.20;99.90;;;5.90;100.00;98317.28;5052152;28;20453;-76
2023/01/10 04:21:21;;;;;;;8.80;1.80;;;5.20;99.90;;;5.92;100.00;98330.13;5052927;28;20552;-76
2023/01/10 04:23:53;;;;;;;7.63;2.30;;;5.20;99.90;;;5.92;100.00;98341.31;5054799;28;20500;-77
2023/01/10 04:26:23;;;;;;;11.07;2.23;;;5.30;99.90;;;5.91;100.00;98339.69;5051504;28;21046;-78
2023/01/10 04:28:52;;;;;;;8.30;1.93;;;5.30;99.90;;;5.91;100.00;98341.47;5052086;28;20527;-77
2023/01/10 04:31:23;;;;;;;7.80;1.90;;;5.20;99.90;;;5.92;100.00;98345.69;5053356;28;20501;-73
2023/01/10 04:33:53;;;;;;;52.13;22.50;;;5.30;99.90;;;5.92;100.00;98348.28;5055045;28;20882;-77
2023/01/10 04:36:22;;;;;;;8.90;2.07;;;5.30;99.90;;;5.92;100.00;98345.69;5053626;28;20460;-77
2023/01/10 04:38:54;;;;;;;4.10;1.93;;;5.30;99.90;;;5.92;100.00;98351.69;5054008;28;20471;-77
2023/01/10 04:41:23;;;;;;;15.77;6.93;;;5.30;99.90;;;5.92;100.00;98346.50;5055453;28;20563;-77
2023/01/10 04:43:52;;;;;;;6.63;2.57;;;5.30;99.90;;;5.94;100.00;98351.53;5055702;28;20556;-77
2023/01/10 04:46:23;;;;;;;10.23;2.07;;;5.20;99.90;;;5.93;100.00;98342.16;5054311;28;20863;-77
2023/01/10 04:48:52;;;;;;;7.63;1.53;;;5.30;99.90;;;5.93;100.00;98339.56;5056513;28;21037;-77
2023/01/10 04:51:21;;;;;;;5.03;2.00;;;5.30;99.90;;;5.94;100.00;98343.75;5056088;28;20557;-77
2023/01/10 04:53:53;;;;;;;7.40;2.27;;;5.30;99.90;;;5.96;100.00;98347.03;5058004;28;20994;-77
2023/01/10 04:56:25;;;;;;;12.30;2.53;;;5.30;99.90;;;5.93;100.00;98348.16;5058071;28;20559;-76
2023/01/10 04:58:56;;;;;;;22.23;2.47;;;5.20;99.90;;;5.95;100.00;98355.78;5057360;28;20460;-76
2023/01/10 05:01:26;;;;;;;11.50;2.40;;;5.20;99.90;;;5.95;100.00;98350.59;5056510;28;20460;-77
2023/01/10 05:03:57;;;;;;;9.40;2.70;;;5.20;99.90;;;5.94;100.00;98359.31;5056123;28;20453;-77
2023/01/10 05:06:28;;;;;;;6.90;1.60;;;5.30;99.90;;;5.95;100.00;98360.97;5058502;28;20544;-77
2023/01/10 05:08:59;;;;;;;6.87;1.63;;;5.20;99.90;;;5.96;100.00;98362.59;5059750;28;20452;-77
2023/01/10 05:11:29;;;;;;;12.77;2.90;;;5.20;99.90;;;5.95;100.00;98373.94;5059966;28;20523;-77
2023/01/10 05:13:59;;;;;;;3.97;1.40;;;5.20;99.90;;;5.95;100.00;98374.75;5055071;28;20457;-77
2023/01/10 05:16:29;;;;;;;10.23;2.00;;;5.20;99.90;;;5.94;100.00;98374.91;5053576;28;20481;-77
2023/01/10 05:18:59;;;;;;;4.10;1.50;;;5.20;99.90;;;5.95;100.00;98373.94;5056127;28;20487;-77
2023/01/10 05:21:28;;;;;;;6.10;1.87;;;5.30;99.90;;;5.92;100.00;98377.66;5052738;28;20474;-77
2023/01/10 05:24:00;;;;;;;4.67;1.90;;;5.20;99.90;;;5.95;100.00;98381.72;5054484;28;20511;-77
2023/01/10 05:26:30;;;;;;;19.33;2.57;;;5.30;99.90;;;5.95;100.00;98379.13;5054985;28;21551;-77
2023/01/10 05:28:59;;;;;;;13.23;2.23;;;5.30;99.90;;;5.96;100.00;98383.38;5056727;28;20583;-77
2023/01/10 05:31:28;;;;;;;15.17;3.20;;;5.40;99.90;;;5.94;100.00;98391.28;5052630;28;20500;-77
2023/01/10 05:33:59;;;;;;;5.67;2.30;;;5.30;99.90;;;5.93;100.00;98394.03;5054837;28;20465;-77
2023/01/10 05:36:29;;;;;;;5.00;2.73;;;5.30;99.90;;;5.94;100.00;98388.69;5053895;28;20989;-77
2023/01/10 05:39:01;;;;;;;5.70;2.30;;;5.30;99.90;;;5.95;100.00;98395.53;5055265;28;20461;-77
2023/01/10 05:41:31;;;;;;;6.50;2.00;;;5.30;99.90;;;5.96;100.00;98398.94;5053784;28;20469;-77
2023/01/10 05:44:00;;;;;;;11.90;2.40;;;5.20;99.90;;;5.97;100.00;98401.38;5055384;28;20901;-78
2023/01/10 05:46:30;;;;;;;8.20;2.77;;;5.30;99.90;;;5.93;100.00;98399.25;5054624;28;20465;-77
2023/01/10 05:49:00;;;;;;;8.00;2.53;;;5.30;99.90;;;5.91;100.00;98407.16;5054366;28;20457;-77
2023/01/10 05:51:29;;;;;;;12.40;2.60;;;5.30;99.90;;;5.92;100.00;98406.19;5054185;28;20609;-77
2023/01/10 05:54:01;;;;;;;8.73;2.53;;;5.30;99.90;;;5.94;100.00;98408.63;5051156;28;20507;-77
2023/01/10 05:56:31;;;;;;;23.37;8.53;;;5.30;99.90;;;5.95;100.00;98421.47;5052263;28;20465;-77
2023/01/10 05:59:00;;;;;;;15.57;3.27;;;5.30;99.90;;;5.96;100.00;98435.28;5052241;28;20515;-77
2023/01/10 06:01:44;;;;;;;4.90;2.23;;;5.30;99.90;;;5.95;100.00;98446.59;5053095;28;20473;-77
2023/01/10 06:04:15;;;;;;;8.47;2.70;;;5.30;99.90;;;5.96;100.00;98443.88;5053779;28;20469;-77
2023/01/10 06:06:44;;;;;;;5.47;2.60;;;5.30;99.90;;;5.98;100.00;98459.28;5051321;28;20480;-78
2023/01/10 06:09:16;;;;;;;13.53;3.00;;;5.30;99.90;;;5.98;100.00;98451.50;5056456;28;20865;-77
2023/01/10 06:11:45;;;;;;;6.03;2.00;;;5.50;99.90;;;5.88;100.00;98438.59;5051389;28;20503;-77
2023/01/10 06:14:18;;;;;;;15.53;3.50;;;5.40;99.90;;;5.90;100.00;98438.47;5050070;28;20568;-77
2023/01/10 06:16:47;;;;;;;8.17;2.40;;;5.30;99.90;;;5.92;100.00;98439.13;5053805;28;20514;-77
2023/01/10 06:19:19;;;;;;;13.80;3.13;;;5.40;99.90;;;5.93;100.00;98446.78;5054574;28;20486;-77
2023/01/10 06:21:50;;;;;;;28.40;10.67;;;5.40;99.90;;;5.91;100.00;98463.44;5051940;28;20821;-77
2023/01/10 06:24:22;;;;;;;13.03;2.97;;;5.30;99.90;;;5.93;100.00;98466.72;5050952;28;20464;-77
2023/01/10 06:26:52;;;;;;;15.27;2.90;;;5.30;99.90;;;5.92;100.00;98473.69;5049264;28;20468;-77
2023/01/10 06:29:24;;;;;;;10.33;2.27;;;5.40;99.90;;;5.89;100.00;98470.56;5050704;28;20464;-77
2023/01/10 06:31:55;;;;;;;16.17;2.70;;;5.50;99.90;;;5.88;100.00;98479.31;5051257;28;21042;-77
2023/01/10 06:34:25;;;;;;;11.30;2.17;;;5.40;99.90;;;5.86;100.00;98476.03;5054767;28;20522;-77
2023/01/10 06:36:55;;;;;;;15.10;2.47;;;5.40;99.90;;;5.86;100.00;98476.03;5054817;28;21053;-77
2023/01/10 06:39:26;;;;;;;16.10;2.23;;;5.30;99.90;;;5.86;100.00;98470.84;5052958;28;20551;-77
2023/01/10 06:41:56;;;;;;;11.13;2.07;;;5.30;99.90;;;5.86;100.00;98478.66;5051287;28;20543;-77
2023/01/10 06:44:25;;;;;;;10.90;1.87;;;5.30;99.90;;;5.87;100.00;98488.84;5053179;28;21176;-77
2023/01/10 06:46:55;;;;;;;9.20;2.60;;;5.30;99.90;;;5.87;100.00;98498.41;5050940;28;20461;-77
2023/01/10 06:49:26;;;;;;;17.53;2.17;;;5.30;99.90;;;5.89;100.00;98491.31;5055891;28;20464;-77
2023/01/10 06:51:56;;;;;;;5.87;2.03;;;5.40;99.90;;;5.88;100.00;98503.47;5055692;28;20519;-78
2023/01/10 06:54:29;;;;;;;17.60;2.20;;;5.40;99.90;;;5.82;100.00;98500.63;5057272;28;20502;-77
2023/01/10 06:57:00;;;;;;;18.83;2.20;;;5.40;99.90;;;5.80;100.00;98505.13;5057831;28;20554;-77
2023/01/10 06:59:33;;;;;;;7.57;1.90;;;5.30;99.90;;;5.84;100.00;98503.88;5059758;28;20460;-77
2023/01/10 07:02:03;;;;;;;13.33;2.90;;;5.20;99.90;;;5.86;100.00;98502.00;5058573;28;20464;-77
2023/01/10 07:04:33;;;;;;;7.33;2.40;;;5.30;99.90;;;5.88;100.00;98500.06;5057724;28;20500;-77
2023/01/10 07:07:04;;;;;;;8.53;1.83;;;5.30;99.90;;;5.90;100.00;98511.13;5057356;28;20465;-77
2023/01/10 07:09:37;;;;;;;11.07;1.97;;;5.30;99.90;;;5.92;100.00;98519.56;5058553;28;20954;-77
2023/01/10 07:12:08;;;;;;;8.47;2.40;;;5.30;99.90;;;5.91;100.00;98526.53;5054942;28;20491;-77
2023/01/10 07:14:37;;;;;;;7.73;2.00;;;5.40;99.90;;;5.92;100.00;98532.56;5057981;28;20823;-77
2023/01/10 07:17:06;;;;;;;7.37;2.23;;;5.40;99.90;;;5.93;100.00;98539.38;5058144;28;20478;-77
2023/01/10 07:19:35;;;;;;;8.03;2.30;;;5.40;99.90;;;5.91;100.00;98526.53;5059004;28;20495;-77
2023/01/10 07:22:05;;;;;;;8.07;1.87;;;5.30;99.90;;;5.94;100.00;98530.59;5057183;28;20465;-77
2023/01/10 07:24:37;;;;;;;10.23;2.00;;;5.40;99.90;;;5.95;100.00;98538.25;5057984;28;20464;-77
2023/01/10 07:27:10;;;;;;;12.10;2.47;;;5.40;99.90;;;5.94;100.00;98541.00;5060087;28;20456;-76
2023/01/10 07:29:40;;;;;;;4.13;1.60;;;5.30;99.90;;;5.96;100.00;98541.69;5060465;28;20460;-77
2023/01/10 07:32:10;;;;;;;7.30;2.17;;;5.30;99.90;;;5.97;100.00;98544.13;5059081;28;20506;-77
2023/01/10 07:34:41;;;;;;;9.40;2.20;;;5.40;99.90;;;5.94;100.00;98536.63;5056445;28;20456;-76
2023/01/10 07:37:11;;;;;;;9.37;2.20;;;5.40;99.90;;;5.95;100.00;98538.25;5057156;28;20466;-76
2023/01/10 07:39:42;;;;;;;8.97;2.87;;;5.40;99.90;;;5.92;100.00;98543.75;5056089;28;20488;-76
2023/01/10 07:42:13;;;;;;;4.33;1.70;;;5.40;99.90;;;5.88;100.00;98557.97;5054405;28;20472;-76
2023/01/10 07:44:42;;;;;;;4.73;1.93;;;5.30;99.90;;;5.90;100.00;98560.44;5056329;28;20484;-77
2023/01/10 07:47:11;;;;;;;4.20;1.80;;;5.40;99.90;;;5.91;100.00;98556.84;5058542;28;20906;-77
2023/01/10 07:49:41;;;;;;;9.20;1.97;;;5.40;99.90;;;5.90;100.00;98569.00;5058018;28;20468;-76
2023/01/10 07:52:11;;;;;;;13.70;2.73;;;5.40;99.90;;;5.90;100.00;98570.81;5058991;28;20496;-77
2023/01/10 07:54:42;;;;;;;12.57;2.90;;;5.30;99.90;;;5.91;100.00;98581.03;5058938;28;20469;-78
2023/01/10 07:57:13;;;;;;;19.87;2.57;;;5.30;99.90;;;5.88;100.00;98583.09;5054499;28;20555;-77
2023/01/10 07:59:44;;;;;;;6.70;2.47;;;5.30;99.90;;;5.89;100.00;98577.78;5053607;28;20461;-77
2023/01/10 08:02:13;;;;;;;10.00;2.90;;;5.30;99.90;;;5.91;100.00;98583.63;5053670;28;20472;-77
2023/01/10 08:04:44;;;;;;;10.50;2.60;;;5.30;99.90;;;5.93;100.00;98586.91;5054521;28;20465;-77
2023/01/10 08:07:14;;;;;;;5.80;2.20;;;5.30;99.90;;;5.95;100.00;98594.53;5052638;28;20460;-77
2023/01/10 08:09:44;;;;;;;23.23;4.03;;;5.30;99.90;;;5.98;100.00;98591.66;5054094;28;21190;-76
2023/01/10 08:12:13;;;;;;;10.30;2.37;;;5.30;99.90;;;6.00;100.00;98594.94;5056821;28;20537;-76
2023/01/10 08:14:42;;;;;;;3.10;1.50;;;5.30;99.90;;;6.03;100.00;98597.25;5053176;28;20457;-77
2023/01/10 08:17:12;;;;;;;9.93;2.10;;;5.40;99.90;;;6.04;100.00;98601.44;5052333;28;20487;-77
2023/01/10 08:19:41;;;;;;;144.73;71.37;;;5.40;99.90;;;6.04;100.00;98604.88;5054140;28;20453;-73
2023/01/10 08:22:11;;;;;;;16.07;3.20;;;5.40;99.90;;;6.02;100.00;98606.81;5055162;28;20526;-77
2023/01/10 08:24:43;;;;;;;75.60;33.47;;;5.50;99.90;;;6.02;100.00;98600.78;5053414;28;20963;-81
2023/01/10 08:27:13;;;;;;;24.20;7.90;;;5.50;99.90;;;5.96;100.00;98601.38;5053606;28;20445;-77
2023/01/10 08:29:43;;;;;;;8.80;3.23;;;5.50;99.90;;;5.94;100.00;98606.69;5053379;28;21678;-77
2023/01/10 08:32:13;;;;;;;9.03;2.33;;;5.50;99.90;;;5.96;100.00;98603.97;5054612;28;20497;-77
2023/01/10 08:34:43;;;;;;;19.07;3.13;;;5.50;99.90;;;5.97;100.00;98603.03;5056355;28;20547;-77
2023/01/10 08:37:13;;;;;;;4.17;2.17;;;5.50;99.90;;;5.97;100.00;98603.03;5059344;28;20496;-77
2023/01/10 08:39:45;;;;;;;16.80;3.17;;;5.50;99.90;;;5.95;100.00;98604.94;5058853;28;20499;-77
2023/01/10 08:42:15;;;;;;;11.53;2.27;;;5.40;99.90;;;6.00;100.00;98607.91;5055529;28;20481;-77
2023/01/10 08:44:46;;;;;;;6.83;2.60;;;5.50;99.90;;;6.02;100.00;98603.38;5054870;28;21092;-77
2023/01/10 08:47:15;;;;;;;9.37;2.90;;;5.50;99.90;;;6.02;100.00;98606.81;5056516;28;20468;-76
2023/01/10 08:49:45;;;;;;;9.80;3.37;;;5.50;99.90;;;6.03;100.00;98605.03;5056540;28;21551;-77
2023/01/10 08:52:16;;;;;;;8.90;2.80;;;5.50;99.90;;;6.02;100.00;98616.38;5057410;28;20469;-76
2023/01/10 08:54:49;;;;;;;14.50;3.20;;;5.50;99.90;;;6.05;100.00;98613.47;5057459;28;20544;-77
2023/01/10 08:57:19;;;;;;;15.50;2.93;;;5.50;99.90;;;6.04;100.00;98619.63;5056985;28;20874;-76
2023/01/10 08:59:49;;;;;;;15.33;3.53;;;5.50;99.90;;;6.01;100.00;98619.91;5055909;28;20463;-77
2023/01/10 09:02:19;;;;;;;12.23;3.33;;;5.50;99.90;;;5.98;100.00;98620.19;5056763;28;20469;-77
2023/01/10 09:04:48;;;;;;;17.67;3.23;;;5.50;99.90;;;6.02;100.00;98618.97;5055944;28;20468;-76
2023/01/10 09:07:17;;;;;;;15.13;3.17;;;5.50;99.90;;;6.07;100.00;98624.56;5057793;28;20468;-77
2023/01/10 09:09:49;;;;;;;12.60;2.70;;;5.60;99.90;;;6.04;100.00;98635.19;5058822;28;20492;-77
2023/01/10 09:15:08;;;;;;;18.73;3.17;;;5.50;99.90;;;6.05;100.00;98644.63;5056544;28;20459;-77
2023/01/10 09:17:37;;;;;;;19.10;2.53;;;5.50;99.90;;;6.06;100.00;98633.28;5056307;28;20477;-77
2023/01/10 09:20:10;;;;;;;8.10;2.50;;;5.60;99.90;;;6.08;100.00;98636.56;5057499;28;20535;-77
2023/01/10 09:22:40;;;;;;;16.77;3.40;;;5.60;99.90;;;6.07;100.00;98645.31;5057814;28;20461;-76
2023/01/10 09:25:12;;;;;;;7.37;2.70;;;5.60;99.90;;;6.03;100.00;98649.16;5057446;28;20465;-76
2023/01/10 09:27:42;;;;;;;8.60;3.10;;;5.50;99.90;;;5.99;100.00;98665.97;5056719;28;20583;-76
2023/01/10 09:30:13;;;;;;;11.87;3.10;;;5.50;99.90;;;5.94;100.00;98670.75;5057341;28;20966;-76
2023/01/10 09:32:43;;;;;;;20.30;4.00;;;5.50;99.90;;;5.90;100.00;98667.63;5058012;28;20496;-77
2023/01/10 09:35:13;;;;;;;12.17;3.40;;;5.50;99.90;;;5.88;100.00;98676.53;5058340;28;20463;-76
2023/01/10 09:37:44;;;;;;;15.87;3.50;;;5.40;99.90;;;5.89;100.00;98675.56;5057203;28;20539;-77
2023/01/10 09:40:23;;;;;;;9.40;2.90;;;5.40;99.90;;;5.89;100.00;98684.19;5057149;28;20457;-77
2023/01/10 09:43:10;;;;;;;12.07;2.80;;;5.50;99.90;;;5.86;100.00;98694.84;5053681;28;20472;-77
2023/01/10 09:45:51;;;;;;;6.63;2.40;;;5.40;99.90;;;5.93;100.00;98695.91;5052433;28;20461;-77
2023/01/10 09:48:33;;;;;;;12.80;3.00;;;5.50;99.90;;;5.90;100.00;98708.38;5055140;28;20464;-77
2023/01/10 09:51:26;;;;;;;9.43;2.57;;;5.40;99.90;;;5.86;100.00;98709.59;5054687;28;20457;-76
2023/01/10 09:54:01;;;;;;;15.27;2.90;;;5.50;99.90;;;5.86;100.00;98714.78;5053371;28;20497;-77
2023/01/10 09:56:45;;;;;;;10.93;2.83;;;5.50;99.90;;;5.81;100.00;98722.13;5055678;28;20467;-76
2023/01/10 09:59:21;;;;;;;12.13;3.10;;;5.30;99.90;;;5.85;100.00;98724.31;5052799;28;20467;-77
2023/01/10 10:02:04;;;;;;;13.40;2.60;;;5.40;99.90;;;5.89;100.00;98719.69;5054088;28;20471;-76
2023/01/10 10:04:40;;;;;;;17.17;3.50;;;5.40;99.90;;;5.88;100.00;98718.03;5055352;28;20496;-76
2023/01/10 10:07:16;;;;;;;15.03;2.90;;;5.40;99.90;;;5.95;100.00;98711.34;5054936;28;20460;-77
2023/01/10 10:09:46;;;;;;;6.47;2.63;;;5.50;99.90;;;5.96;100.00;98710.38;5056564;28;21014;-77
2023/01/10 10:12:32;;;;;;;7.90;2.43;;;5.50;99.90;;;6.01;100.00;98702.97;5054808;28;20597;-77
2023/01/10 10:15:18;;;;;;;18.10;3.40;;;5.60;99.90;;;6.02;100.00;98696.84;5055477;28;20527;-76
2023/01/10 10:17:57;;;;;;;15.00;3.30;;;5.50;99.90;;;5.99;100.00;98694.53;5057397;28;20480;-77
2023/01/10 10:20:44;;;;;;;18.20;3.20;;;5.60;99.90;;;5.96;100.00;98692.22;5056510;28;20546;-77
2023/01/10 10:23:34;;;;;;;11.37;3.23;;;5.50;99.90;;;5.93;100.00;98695.09;5057045;28;20461;-76
2023/01/10 10:26:17;;;;;;;9.10;2.60;;;5.50;99.90;;;5.95;100.00;98693.16;5061055;28;20489;-77
2023/01/10 10:29:39;;;;;;;11.87;2.80;;;5.50;99.90;;;5.98;100.00;98690.28;5061875;28;20494;-76
2023/01/10 10:32:50;;;;;;;5.60;2.50;;;5.50;99.90;;;5.96;100.00;98694.81;5038464;28;20456;-76
2023/01/10 10:35:29;;;;;;;17.77;3.00;;;5.50;99.90;;;5.98;100.00;98677.31;5060483;28;20901;-76
2023/01/10 10:38:09;;;;;;;12.37;3.10;;;5.50;99.90;;;5.98;100.00;98682.50;5061346;28;20555;-76
2023/01/10 10:40:44;;;;;;;8.53;2.53;;;5.60;99.90;;;6.00;100.00;98675.41;5058642;28;21009;-76
2023/01/10 10:43:20;;;;;;;19.97;2.93;;;5.60;99.90;;;5.98;100.00;98672.13;5057923;28;20468;-76
2023/01/10 10:45:56;;;;;;;16.17;2.27;;;5.50;99.90;;;6.01;100.00;98672.66;5058504;28;20451;-77
2023/01/10 10:48:31;;;;;;;17.13;2.60;;;5.50;99.90;;;5.97;100.00;98670.50;5060240;28;21069;-76
2023/01/10 10:51:08;;;;;;;15.50;2.67;;;5.50;99.90;;;5.97;100.00;98662.72;5057225;28;20465;-78
2023/01/10 10:53:38;;;;;;;16.63;2.73;;;5.50;99.90;;;6.03;100.00;98659.53;5057559;28;20492;-76
2023/01/10 10:56:15;;;;;;;12.10;2.37;;;5.60;99.90;;;6.02;100.00;98657.91;5058544;28;21035;-76
2023/01/10 10:58:52;;;;;;;8.83;2.20;;;5.60;99.90;;;6.07;100.00;98655.69;5058381;28;20825;-76
2023/01/10 11:01:23;;;;;;;8.23;2.77;;;5.60;99.90;;;6.08;100.00;98649.53;5057565;28;21524;-77
2023/01/10 11:04:00;;;;;;;10.83;3.53;;;5.70;99.90;;;6.05;100.00;98662.81;5058964;28;20996;-77